Pointe A La Hache, Louisiana
Current Conditions -  °F | °C
As of 9:55 PM on Friday 19 Dec 2014 (Local Time) from KNBG Reporting Station
Moderate Rain Moderate Rain  
Wind Chill: 50°   Ceiling: 800
Heat Index: 50°   Visibility: 4mi
Dew Point: 49°   Wind: 10mph
Humidity: 96%   Direction: 40°NE
Pressure: 30.08"   Gusts: NA
Location:  29.58°N, 89.79°W
Report Text: KNBG 200355Z 04009KT 4SM RA BR BKN008 10/09 A3008 RMK AO2 SLP184 P0014 T01000094 $
Loading
Personal Weather Stations






























Interactive Weather Map New forecast layout! Learn more

10-Day Weather Forecast

Advertisements
Track Severe Weather on mobile